Flight Track Log - Related Links

Times and Time Zones

All times are in EDT time to prevent confusion due to time zone crossing. See the UAL33 flight status page for this flight to view local times or setup timezone preferences in your user account.

Time Position Orientation Groundspeed Altitude Reporting Facility
EDT Latitude Longitude Course Direction KTS MPH feet Rate Location/Type
Sun 04:41:40 AM 35.6856 140.4321 150° Southeast 203 234 3,500  Level FlightAware ADS-B
Sun 04:42:01 AM 35.6628 140.4486 150° Southeast 243 280 3,900 1,800 Climbing FlightAware ADS-B
Sun 04:42:20 AM 35.6424 140.4633 149° Southeast 251 289 4,700 2,025 Climbing FlightAware ADS-B
Sun 04:43:21 AM 35.5714 140.5144 150° Southeast 318 366 6,600 2,074 Climbing FlightAware ADS-B
Sun 04:43:41 AM 35.5456 140.5330 149° Southeast 319 367 7,500 2,550 Climbing FlightAware ADS-B
Sun 04:44:01 AM 35.5207 140.5510 149° Southeast 325 374 8,300 1,950 Climbing FlightAware ADS-B
Sun 04:44:21 AM 35.4934 140.5706 150° Southeast 340 391 8,800 900 Climbing FlightAware ADS-B
Sun 04:44:41 AM 35.4671 140.5909 139° Southeast 344 396 8,900 150 Climbing FlightAware ADS-B
Sun 04:45:01 AM 35.4482 140.6247 110° East 337 388 8,900  Level FlightAware ADS-B
Sun 04:45:19 AM 35.4442 140.6562 87° East 334 384 8,900  Level FlightAware ADS-B
Sun 04:45:41 AM 35.4487 140.6978 84° East 333 383 8,900  Level FlightAware ADS-B
Sun 04:46:02 AM 35.4528 140.7367 84° East 331 381 8,900  Level FlightAware ADS-B
Sun 04:46:22 AM 35.4570 140.7755 84° East 331 381 8,900 158 Level FlightAware ADS-B
Sun 04:46:40 AM 35.4605 140.8071 84° East 333 383 9,000 1,729 Climbing FlightAware ADS-B
Sun 04:47:21 AM 35.4688 140.8851 84° East 346 398 10,600 2,325 Climbing FlightAware ADS-B
Sun 04:48:00 AM 35.4771 140.9607 82° East 367 422 12,100 2,550 Climbing FlightAware ADS-B
Sun 04:48:41 AM 35.4815 141.0498 96° East 385 443 14,000 2,734 Climbing FlightAware ADS-B
Sun 04:49:19 AM 35.4755 141.1345 92° East 397 457 15,700 2,625 Climbing FlightAware ADS-B
Sun 04:50:01 AM 35.4729 141.2298 91° East 408 470 17,500 2,386 Climbing FlightAware ADS-B
Sun 04:50:42 AM 35.4705 141.3251 91° East 421 484 19,000 2,203 Climbing FlightAware ADS-B
Sun 04:51:20 AM 35.4677 141.4171 92° East 433 498 20,400 1,808 Climbing FlightAware ADS-B
Sun 04:51:55 AM 35.4650 141.5078 92° East 454 522 21,200 1,500 Climbing FlightAware ADS-B
Sun 04:52:32 AM 35.4619 141.6043 92° East 471 542 22,200 1,643 Climbing FlightAware ADS-B
Sun 04:53:19 AM 35.4576 141.7313 93° East 487 560 23,500 1,765 Climbing FlightAware ADS-B
Sun 04:53:57 AM 35.4542 141.8284 92° East 494 568 24,700 1,833 Climbing FlightAware ADS-B
Sun 04:54:31 AM 35.4509 141.9334 92° East 503 579 25,700 1,583 Climbing FlightAware ADS-B
Sun 04:55:09 AM 35.4470 142.0425 92° East 517 595 26,600 1,364 Climbing FlightAware ADS-B
Sun 04:55:59 AM 35.4418 142.1923 92° East 517 595 27,700 1,252 Climbing FlightAware ADS-B
Sun 04:58:35 AM 35.4226 142.6842 92° East 517 595 30,900 81 Climbing FlightAware ADS-B
Sun 05:01:00 AM 35.6119 143.0458 57° Northeast  Level Estimated
Sun 05:02:00 AM 35.6900 143.1959 57° Northeast  Level Estimated
Sun 05:03:00 AM 35.7678 143.3463 57° Northeast  Level Estimated
Sun 05:04:00 AM 35.8455 143.4969 58° Northeast  Level Estimated
Sun 05:05:00 AM 35.9229 143.6479 58° Northeast  Level Estimated
Sun 05:06:00 AM 36.0002 143.7992 58° Northeast  Level Estimated
Sun 05:07:00 AM 36.0773 143.9507 58° Northeast  Level Estimated
Sun 05:08:00 AM 36.1542 144.1026 58° Northeast  Level Estimated
Sun 05:09:00 AM 36.2309 144.2548 58° Northeast  Level Estimated
Sun 05:10:00 AM 36.3074 144.4073 58° Northeast  Level Estimated
Sun 05:11:00 AM 36.3837 144.5600 58° Northeast  Level Estimated
Sun 05:12:00 AM 36.4598 144.7131 58° Northeast  Level Estimated
Sun 05:13:00 AM 36.5356 144.8661 58° Northeast  Level Estimated
Sun 05:14:00 AM 36.6112 145.0195 58° Northeast  Level Estimated
Sun 05:15:00 AM 36.6866 145.1732 59° Northeast  Level Estimated
Sun 05:16:00 AM 36.7618 145.3272 59° Northeast  Level Estimated
Sun 05:17:00 AM 36.8368 145.4815 59° Northeast  Level Estimated
Sun 05:18:00 AM 36.9116 145.6361 59° Northeast  Level Estimated
Sun 05:19:00 AM 36.9862 145.7910 59° Northeast  Level Estimated
Sun 05:20:00 AM 37.0606 145.9462 59° Northeast  Level Estimated
Sun 05:21:00 AM 37.1348 146.1017 59° Northeast  Level Estimated
Sun 05:22:00 AM 37.2087 146.2575 59° Northeast  Level Estimated
Sun 05:23:00 AM 37.2825 146.4136 59° Northeast  Level Estimated
Sun 05:24:00 AM 37.3561 146.5700 59° Northeast  Level Estimated
Sun 05:25:00 AM 37.4295 146.7267 59° Northeast  Level Estimated
Sun 05:26:00 AM 37.5026 146.8837 60° Northeast  Level Estimated
Sun 05:27:00 AM 37.5756 147.0411 60° Northeast  Level Estimated
Sun 05:28:00 AM 37.6483 147.1987 60° Northeast  Level Estimated
Sun 05:29:00 AM 37.7209 147.3567 60° Northeast  Level Estimated
Sun 05:30:00 AM 37.7932 147.5150 60° Northeast  Level Estimated
Sun 05:31:00 AM 37.8653 147.6735 60° Northeast  Level Estimated
Sun 05:32:00 AM 37.9372 147.8324 60° Northeast  Level Estimated
Sun 05:33:00 AM 38.0089 147.9916 60° Northeast  Level Estimated
Sun 05:34:00 AM 38.0804 148.1511 60° Northeast  Level Estimated
Sun 05:35:00 AM 38.1516 148.3109 60° Northeast  Level Estimated
Sun 05:36:00 AM 38.2227 148.4711 61° Northeast  Level Estimated
Sun 05:37:00 AM 38.2935 148.6315 61° Northeast  Level Estimated
Sun 05:38:00 AM 38.3641 148.7923 61° Northeast  Level Estimated
Sun 05:39:00 AM 38.4345 148.9533 61° Northeast  Level Estimated
Sun 05:40:00 AM 38.5046 149.1147 61° Northeast  Level Estimated
Sun 05:41:00 AM 38.5746 149.2764 61° Northeast  Level Estimated
Sun 05:42:00 AM 38.6443 149.4384 61° Northeast  Level Estimated
Sun 05:43:00 AM 38.7138 149.6007 61° Northeast  Level Estimated
Sun 05:44:00 AM 38.7830 149.7634 61° Northeast  Level Estimated
Sun 05:45:00 AM 38.8521 149.9263 61° Northeast  Level Estimated
Sun 05:46:00 AM 38.9209 150.0896 62° Northeast  Level Estimated
Sun 05:47:00 AM 38.9895 150.2532 62° Northeast  Level Estimated
Sun 05:48:00 AM 39.0578 150.4171 62° Northeast  Level Estimated
Sun 05:49:00 AM 39.1259 150.5813 62° Northeast  Level Estimated
Sun 05:50:00 AM 39.1939 150.7459 62° Northeast  Level Estimated
Sun 05:51:00 AM 39.2615 150.9107 62° Northeast  Level Estimated
Sun 05:52:00 AM 39.3289 151.0759 62° Northeast  Level Estimated
Sun 05:53:00 AM 39.3961 151.2414 62° Northeast  Level Estimated
Sun 05:54:00 AM 39.4631 151.4072 62° Northeast  Level Estimated
Sun 05:55:00 AM 39.5298 151.5733 62° Northeast  Level Estimated
Sun 05:56:00 AM 39.5963 151.7398 63° Northeast  Level Estimated
Sun 05:57:00 AM 39.6626 151.9066 63° Northeast  Level Estimated
Sun 05:58:00 AM 39.7286 152.0737 63° Northeast  Level Estimated
Sun 05:59:00 AM 39.7944 152.2411 63° Northeast  Level Estimated
Sun 06:00:00 AM 39.8599 152.4088 63° Northeast  Level Estimated
Sun 06:01:00 AM 39.9252 152.5768 63° Northeast  Level Estimated
Sun 06:02:00 AM 39.9902 152.7452 63° Northeast  Level Estimated
Sun 06:03:00 AM 40.0550 152.9139 63° Northeast  Level Estimated
Sun 06:04:00 AM 40.1196 153.0829 63° Northeast  Level Estimated
Sun 06:05:00 AM 40.1839 153.2522 64° Northeast  Level Estimated
Sun 06:06:00 AM 40.2480 153.4219 64° Northeast  Level Estimated
Sun 06:07:00 AM 40.3118 153.5919 64° Northeast  Level Estimated
Sun 06:08:00 AM 40.3754 153.7622 64° Northeast  Level Estimated
Sun 06:09:00 AM 40.4387 153.9328 64° Northeast  Level Estimated
Sun 06:10:00 AM 40.5017 154.1037 64° Northeast  Level Estimated
Sun 06:11:00 AM 40.5645 154.2750 64° Northeast  Level Estimated
Sun 06:12:00 AM 40.6271 154.4465 64° Northeast  Level Estimated
Sun 06:13:00 AM 40.6894 154.6184 64° Northeast  Level Estimated
Sun 06:14:00 AM 40.7515 154.7907 65° Northeast  Level Estimated
Sun 06:15:00 AM 40.8133 154.9632 65° Northeast  Level Estimated
Sun 06:16:00 AM 40.8748 155.1361 65° Northeast  Level Estimated
Sun 06:17:00 AM 40.9361 155.3092 65° Northeast  Level Estimated
Sun 06:18:00 AM 40.9971 155.4828 65° Northeast  Level Estimated
Sun 06:19:00 AM 41.0578 155.6566 65° Northeast  Level Estimated
Sun 06:20:00 AM 41.1183 155.8307 65° Northeast  Level Estimated
Sun 06:21:00 AM 41.1786 156.0052 65° Northeast  Level Estimated
Sun 06:22:00 AM 41.2385 156.1800 65° Northeast  Level Estimated
Sun 06:23:00 AM 41.2982 156.3551 66° East  Level Estimated
Sun 06:24:00 AM 41.3577 156.5305 66° East  Level Estimated
Sun 06:25:00 AM 41.4169 156.7063 66° East  Level Estimated
Sun 06:26:00 AM 41.4758 156.8823 66° East  Level Estimated
Sun 06:27:00 AM 41.5344 157.0587 66° East  Level Estimated
Sun 06:28:00 AM 41.5927 157.2351 66° East  Level Estimated
Sun 06:29:00 AM 41.6506 157.4118 66° East  Level Estimated
Sun 06:30:00 AM 41.7084 157.5888 66° East  Level Estimated
Sun 06:31:00 AM 41.7658 157.7662 66° East  Level Estimated
Sun 06:32:00 AM 41.8230 157.9438 67° East  Level Estimated
Sun 06:33:00 AM 41.8799 158.1218 67° East  Level Estimated
Sun 06:34:00 AM 41.9365 158.3001 67° East  Level Estimated
Sun 06:35:00 AM 41.9928 158.4787 67° East  Level Estimated
Sun 06:36:00 AM 42.0489 158.6576 67° East  Level Estimated
Sun 06:37:00 AM 42.1047 158.8368 67° East  Level Estimated
Sun 06:38:00 AM 42.1602 159.0164 67° East  Level Estimated
Sun 06:39:00 AM 42.2154 159.1962 67° East  Level Estimated
Sun 06:40:00 AM 42.2704 159.3764 68° East  Level Estimated
Sun 06:41:00 AM 42.3251 159.5569 68° East  Level Estimated
Sun 06:42:00 AM 42.3794 159.7377 68° East  Level Estimated
Sun 06:43:00 AM 42.4335 159.9188 68° East  Level Estimated
Sun 06:44:00 AM 42.4874 160.1003 68° East  Level Estimated
Sun 06:45:00 AM 42.5409 160.2820 68° East  Level Estimated
Sun 06:46:00 AM 42.5941 160.4641 68° East  Level Estimated
Sun 06:47:00 AM 42.6471 160.6464 68° East  Level Estimated
Sun 06:48:00 AM 42.6997 160.8291 69° East  Level Estimated
Sun 06:49:00 AM 42.7521 161.0121 69° East  Level Estimated
Sun 06:50:00 AM 42.8042 161.1954 69° East  Level Estimated
Sun 06:51:00 AM 42.8560 161.3790 69° East  Level Estimated
Sun 06:52:00 AM 42.9075 161.5629 69° East  Level Estimated
Sun 06:53:00 AM 42.9586 161.7471 69° East  Level Estimated
Sun 06:54:00 AM 43.0095 161.9316 69° East  Level Estimated
Sun 06:55:00 AM 43.0602 162.1164 69° East  Level Estimated
Sun 06:56:00 AM 43.1105 162.3016 70° East  Level Estimated
Sun 06:57:00 AM 43.1605 162.4870 70° East  Level Estimated
Sun 06:58:00 AM 43.2102 162.6727 70° East  Level Estimated
Sun 06:59:00 AM 43.2596 162.8588 70° East  Level Estimated
Sun 07:00:00 AM 43.3087 163.0451 70° East  Level Estimated
Sun 07:01:00 AM 43.3575 163.2317 70° East  Level Estimated
Sun 07:02:00 AM 43.4060 163.4187 70° East  Level Estimated
Sun 07:03:00 AM 43.4542 163.6059 70° East  Level Estimated
Sun 07:03:41 AM 37.5667 167.3833 77° East 602 693 38,000  Level Oakland Oceanic (ODAPS)
Sun 07:17:15 AM 38.0500 170.2167 73° East 612 704 38,000  Level Oakland Oceanic (ODAPS)
Sun 07:17:40 AM 38.0667 170.2500 73° East 614 707 38,000  Level Oakland Oceanic (ODAPS)
Sun 07:31:10 AM 38.7333 173.1333 74° East 616 709 38,000  Level Oakland Oceanic (ODAPS)
Sun 07:45:01 AM 39.3333 176.0667 76° East 617 710 38,000  Level Oakland Oceanic (ODAPS)
Sun 07:58:53 AM 39.8500 179.0667 78° East 621 715 38,000  Level Oakland Oceanic (ODAPS)
Sun 08:03:08 AM 40.0000 180.0000 72° East 618 711 38,000  Level Oakland Oceanic (ODAPS)
Sun 08:12:45 AM 40.5000 -177.9000 73° East 616 709 38,000  Level Oakland Oceanic (ODAPS)
Sun 08:26:39 AM 41.1500 -174.8667 75° East 613 705 38,000  Level Oakland Oceanic (ODAPS)
Sun 08:40:29 AM 41.7167 -171.8000 77° East 616 709 38,000  Level Oakland Oceanic (ODAPS)
Sun 08:48:33 AM 42.0000 -170.0000 87° East 596 686 38,000  Level Oakland Oceanic (ODAPS)
Sun 08:54:22 AM 42.0500 -168.6833 88° East 589 678 38,000  Level Oakland Oceanic (ODAPS)
Sun 09:08:13 AM 42.1000 -165.5667 90° East 589 678 38,000  Level Oakland Oceanic (ODAPS)
Sun 09:22:05 AM 42.0833 -162.5167 92° East 584 672 38,000  Level Oakland Oceanic (ODAPS)
Sun 09:33:39 AM 42.0000 -160.0000 87° East 566 651 38,000  Level Oakland Oceanic (ODAPS)
Sun 09:35:58 AM 42.0167 -159.4833 87° East 561 646 38,000  Level Oakland Oceanic (ODAPS)
Sun 09:49:49 AM 42.1000 -156.5333 89° East 547 629 38,000  Level Oakland Oceanic (ODAPS)
Sun 10:03:43 AM 42.1000 -153.7167 91° East 537 618 38,000  Level Oakland Oceanic (ODAPS)
Sun 10:17:35 AM 42.0333 -150.9500 92° East 537 618 38,000  Level Oakland Oceanic (ODAPS)
Sun 10:22:21 AM 42.0000 -150.0000 94° East 522 601 38,000  Level Oakland Oceanic (ODAPS)
Sun 10:31:26 AM 41.8833 -148.2500 95° East 516 594 38,000  Level Oakland Oceanic (ODAPS)
Sun 10:45:19 AM 41.6667 -145.6000 97° East 518 596 38,000  Level Oakland Oceanic (ODAPS)
Sun 10:59:10 AM 41.3833 -142.9667 99° East 516 594 38,000  Level Oakland Oceanic (ODAPS)
Sun 11:13:05 AM 41.0500 -140.3833 100° East 510 587 38,000  Level Oakland Oceanic (ODAPS)
Sun 11:15:08 AM 41.0000 -140.0000 101° East 505 581 38,000  Level Oakland Oceanic (ODAPS)
Sun 11:26:54 AM 40.6500 -137.8833 103° East 497 572 38,000  Level Oakland Oceanic (ODAPS)
Sun 11:40:48 AM 40.2167 -135.4667 104° East 491 565 38,000  Level Oakland Oceanic (ODAPS)
Sun 11:54:37 AM 39.7333 -133.1000 106° East 495 570 38,000  Level Oakland Oceanic (ODAPS)
Sun 12:08:30 PM 39.1833 -130.7500 107° East 490 564 38,000  Level Oakland Oceanic (ODAPS)
Sun 12:12:58 PM 39.0000 -130.0000 102° East 495 570 38,000  Level Oakland Oceanic (ODAPS)
Sun 12:22:17 PM 38.7167 -128.3833 103° East 499 574 38,000  Level Oakland Oceanic (ODAPS)
Sun 12:27:25 PM 38.5639 -127.5069 111° Southeast 499 574 38,000  Level Oakland Center
Sun 12:28:00 PM 38.5307 -127.3449 103° East 499 574 38,000 -98 Level FlightAware Transoceanic
Sun 12:28:26 PM 38.5317 -127.3361 104° East 498 573 37,900  Descending Oakland Center
Sun 12:28:56 PM 38.5167 -127.2333 105° East 499 574 38,000 176 Climbing Oakland Oceanic (ODAPS)
Sun 12:29:00 PM 38.4988 -127.1724 103° East 499 574 38,000  Level FlightAware Transoceanic
Sun 12:29:27 PM 38.4983 -127.1653 105° East 498 573 38,000  Level Oakland Center
Sun 12:30:00 PM 38.4667 -127.0000 111° Southeast 499 574 38,000  Level FlightAware Transoceanic
Sun 12:30:29 PM 38.4647 -126.9972 104° East 495 570 38,000  Level Oakland Center
Sun 12:31:00 PM 38.4158 -126.8324 111° Southeast 499 574 38,000  Level FlightAware Transoceanic
Sun 12:31:30 PM 38.4086 -126.8372 114° Southeast 494 568 38,000  Level Oakland Center
Sun 12:32:00 PM 38.3646 -126.6650 111° Southeast 499 574 38,000  Level FlightAware Transoceanic
Sun 12:32:31 PM 38.3400 -126.6464 115° Southeast 494 568 38,000  Level Oakland Center
Sun 12:33:00 PM 38.3132 -126.4979 111° Southeast 499 574 38,000 -97 Level FlightAware Transoceanic
Sun 12:33:33 PM 38.2831 -126.4878 115° Southeast 494 568 37,900  Descending Oakland Center
Sun 12:34:34 PM 38.2244 -126.3306 115° Southeast 494 568 38,000 49 Climbing Oakland Center
Sun 12:35:36 PM 38.1669 -126.1700 114° Southeast 494 568 38,000  Level Oakland Center
Sun 12:36:37 PM 38.1086 -126.0125 115° Southeast 494 568 38,000 -49 Level Oakland Center
Sun 12:37:38 PM 38.0500 -125.8553 115° Southeast 494 568 37,900 -49 Descending Oakland Center
Sun 12:38:40 PM 37.9914 -125.6972 115° Southeast 495 570 37,900 49 Level Oakland Center
Sun 12:39:41 PM 37.9325 -125.5397 115° Southeast 495 570 38,000 49 Climbing Oakland Center
Sun 12:40:42 PM 37.8731 -125.3811 115° Southeast 496 571 38,000  Level Oakland Center
Sun 12:41:44 PM 37.8011 -125.1925 116° Southeast 497 572 38,000  Level Oakland Center
Sun 12:47:27 PM 37.4646 -124.3219 116° Southeast 500 575 38,000  Level FlightAware ADS-B (KSAC)
Sun 12:48:10 PM 37.4273 -124.2267 116° Southeast 499 574 38,000  Level FlightAware ADS-B (KSAC)
Sun 12:49:30 PM 37.3480 -124.0250 116° Southeast 500 575 38,000  Level FlightAware ADS-B (KSAC)
Sun 12:50:30 PM 37.2832 -123.8609 116° Southeast 500 575 38,000 -254 Level FlightAware ADS-B (KSAC)
Sun 12:51:28 PM 37.2166 -123.6934 116° Southeast 499 574 37,500 -606 Descending FlightAware ADS-B (KSAC)
Sun 12:52:09 PM 37.1765 -123.5933 116° Southeast 492 566 37,000 -441 Descending FlightAware ADS-B (KSAC)
Sun 12:52:36 PM 37.1355 -123.4910 117° Southeast 491 565 37,000  Level FlightAware ADS-B
Sun 12:52:40 PM 37.1495 -123.5258 116° Southeast 490 564 37,000  Level FlightAware ADS-B (KSAC)
Sun 12:53:07 PM 37.1044 -123.4130 117° Southeast 490 564 37,000  Level FlightAware ADS-B
Sun 12:54:30 PM 37.0202 -123.2040 117° Southeast 490 564 37,000  Level FlightAware ADS-B
Sun 12:54:50 PM 37.0133 -123.1872 116° Southeast 490 564 37,000  Level FlightAware ADS-B (KSAC)
Sun 12:55:51 PM 36.9731 -123.0883 116° Southeast 489 563 37,000  Level FlightAware ADS-B (KSAC)
Sun 12:56:01 PM 36.9267 -122.9740 117° Southeast 491 565 37,000  Level FlightAware ADS-B
Sun 12:56:36 PM 36.8900 -122.8850 117° Southeast 492 566 37,000  Level FlightAware ADS-B
Sun 12:57:09 PM 36.8561 -122.8020 117° Southeast 493 567 37,000  Level FlightAware ADS-B
Sun 12:57:46 PM 36.8179 -122.7090 117° Southeast 494 568 37,000  Level FlightAware ADS-B
Sun 12:59:11 PM 36.7541 -122.5538 117° Southeast 494 568 37,000  Level FlightAware ADS-B (KSAC)
Sun 12:59:23 PM 36.7164 -122.4630 117° Southeast 495 570 37,000  Level FlightAware ADS-B
Sun 12:59:53 PM 36.6849 -122.3870 117° Southeast 494 568 37,000  Level FlightAware ADS-B
Sun 01:00:24 PM 36.6528 -122.3100 117° Southeast 494 568 37,000  Level FlightAware ADS-B
Sun 01:01:08 PM 36.6063 -122.2000 117° Southeast 494 568 37,000  Level FlightAware ADS-B
Sun 01:01:51 PM 36.5714 -122.1280 120° Southeast 496 571 37,000  Level FlightAware ADS-B (KSAC)
Sun 01:04:10 PM 36.4040 -121.8013 122° Southeast 496 571 37,000  Level FlightAware ADS-B (KSAC)
Sun 01:07:35 PM 36.1260 -121.2660 123° Southeast 502 578 37,000  Level FlightAware ADS-B
Sun 01:08:31 PM 36.0543 -121.1290 123° Southeast 504 580 37,000  Level FlightAware ADS-B
Sun 01:09:02 PM 36.0157 -121.0560 123° Southeast 504 580 37,000  Level FlightAware ADS-B
Sun 01:09:36 PM 35.9723 -120.9730 123° Southeast 505 581 37,000  Level FlightAware ADS-B
Sun 01:10:10 PM 35.9294 -120.8920 123° Southeast 506 582 37,000  Level FlightAware ADS-B
Sun 01:13:28 PM 35.6910 -120.4441 123° Southeast 511 588 37,000 -68 Level FlightAware ADS-B
Sun 01:14:35 PM 35.5881 -120.2527 123° Southeast 510 587 36,700 -647 Descending FlightAware ADS-B
Sun 01:15:10 PM 35.5415 -120.1670 124° Southeast 509 586 35,900 -1,231 Descending FlightAware ADS-B
Sun 01:15:14 PM 35.5360 -120.1564 124° Southeast 509 586 35,900 -1,200 Level FlightAware ADS-B
Sun 01:16:00 PM 35.4775 -120.0482 123° Southeast 507 583 34,900 -1,594 Descending FlightAware ADS-B
Sun 01:17:22 PM 35.3775 -119.8637 124° Southeast 515 593 32,500 -1,538 Descending FlightAware ADS-B
Sun 01:18:40 PM 35.2608 -119.6603 130° Southeast 506 582 30,800 -1,252 Descending FlightAware ADS-B
Sun 01:19:17 PM 35.1969 -119.5912 144° Southeast 499 574 30,100 -1,237 Descending FlightAware ADS-B
Sun 01:20:17 PM 35.0872 -119.4974 145° Southeast 497 572 28,800 -1,366 Descending FlightAware ADS-B
Sun 01:20:58 PM 35.0063 -119.4283 144° Southeast 491 565 27,800 -1,786 Descending FlightAware ADS-B
Sun 01:21:41 PM 34.9277 -119.3615 145° Southeast 481 554 26,300 -2,096 Descending FlightAware ADS-B
Sun 01:22:21 PM 34.8553 -119.3002 145° Southeast 472 543 24,900 -2,080 Descending FlightAware ADS-B
Sun 01:22:56 PM 34.7934 -119.2479 145° Southeast 463 533 23,700 -2,127 Descending FlightAware ADS-B
Sun 01:23:40 PM 34.7152 -119.1818 145° Southeast 453 521 22,100 -2,188 Descending FlightAware ADS-B
Sun 01:24:21 PM 34.6459 -119.1232 145° Southeast 445 512 20,600 -2,074 Descending FlightAware ADS-B
Sun 01:25:01 PM 34.5792 -119.0674 145° Southeast 434 499 19,300 -2,100 Descending FlightAware ADS-B
Sun 01:25:41 PM 34.5131 -119.0120 145° Southeast 425 489 17,800 -2,127 Descending FlightAware ADS-B
Sun 01:26:20 PM 34.4502 -118.9595 145° Southeast 420 483 16,500 -1,975 Descending FlightAware ADS-B
Sun 01:27:00 PM 34.3876 -118.9072 145° Southeast 411 473 15,200 -1,865 Descending FlightAware ADS-B
Sun 01:27:34 PM 34.3362 -118.8748 157° South 435 501 14,200 -2,857 Descending FlightAware ADS-B
Sun 01:27:42 PM 34.3227 -118.8688 159° South 400 460 13,200 -2,108 Descending FlightAware ADS-B
Sun 01:28:11 PM 34.2701 -118.8495 163° South 391 450 12,900 -923 Descending FlightAware ADS-B
Sun 01:28:21 PM 34.2490 -118.8417 162° South 389 448 12,600 -1,080 Descending FlightAware ADS-B
Sun 01:29:01 PM 34.1823 -118.8171 162° South 360 414 12,000 -960 Descending FlightAware ADS-B
Sun 01:29:36 PM 34.1295 -118.7977 163° South 390 449 11,400 -833 Descending FlightAware ADS-B
Sun 01:29:37 PM 34.1295 -118.7977 163° South 347 399 11,500 -1,756 Climbing FlightAware ADS-B
Sun 01:30:17 PM 34.0655 -118.7719 149° Southeast 340 391 10,200 -1,400 Descending FlightAware ADS-B
Sun 01:30:37 PM 34.0477 -118.7524 128° Southeast 331 381 10,100 -500 Descending FlightAware ADS-B
Sun 01:30:41 PM 34.0404 -118.7406 117° Southeast 324 373 10,000 -1,333 Descending FlightAware ADS-B
Sun 01:30:46 PM 34.0395 -118.7359 115° Southeast 322 371 9,900 -333 Descending FlightAware ADS-B
Sun 01:30:59 PM 34.0340 -118.7102 95° East 305 351 9,900  Level FlightAware ADS-B
Sun 01:31:21 PM 34.0305 -118.6726 96° East 302 348 9,900 -293 Level FlightAware ADS-B
Sun 01:31:40 PM 34.0274 -118.6402 96° East 302 348 9,700 -769 Descending FlightAware ADS-B
Sun 01:32:00 PM 34.0244 -118.6079 96° East 297 342 9,400 -818 Descending FlightAware ADS-B
Sun 01:32:24 PM 34.0210 -118.5701 96° East 294 338 9,100 -878 Descending FlightAware ADS-B
Sun 01:32:41 PM 34.0185 -118.5437 115° Southeast 322 371 8,800 -1,200 Descending FlightAware ADS-B
Sun 01:32:59 PM 34.0160 -118.5173 97° East 286 329 8,400 -1,200 Descending FlightAware ADS-B
Sun 01:33:56 PM 34.0169 -118.4265 74° East 273 314 7,300 -1,167 Descending FlightAware ADS-B
Sun 01:34:11 PM 34.0219 -118.4035 76° East 272 313 7,000 -1,400 Descending FlightAware ADS-B
Sun 01:34:26 PM 34.0253 -118.3842 78° East 274 315 6,600 -1,548 Descending FlightAware ADS-B
Sun 01:34:42 PM 34.0294 -118.3598 78° East 277 319 6,200 -1,440 Descending FlightAware ADS-B
Sun 01:34:51 PM 34.0321 -118.3441 78° East 276 318 6,000 -1,304 Descending FlightAware ADS-B
Sun 01:35:05 PM 34.0358 -118.3233 77° East 277 319 5,700 -1,059 Descending FlightAware ADS-B
Sun 01:35:25 PM 34.0406 -118.2965 78° East 277 319 5,400 -1,111 Descending FlightAware ADS-B
Sun 01:35:59 PM 34.0501 -118.2449 77° East 276 318 4,700 -1,185 Descending FlightAware ADS-B
Sun 01:36:46 PM 34.0592 -118.1946 74° East 267 307 3,800 -698 Descending FlightAware ADS-B
Sun 01:39:08 PM 33.9987 -118.0878 234° Southwest 183 211 2,500 -473 Descending FlightAware ADS-B
Sun 01:39:31 PM 33.9852 -118.1104 237° Southwest 183 211 2,500 81 Level FlightAware ADS-B
Sun 01:40:22 PM 33.9833 -118.1667 237° Southwest 185 213 2,600 54 Climbing Southern California TRACON
Sun 01:41:22 PM 33.9667 -118.2167 248° West 186 214 2,600 -157 Level Southern California TRACON
Sun 01:42:17 PM 33.9667 -118.2667 270° West 164 189 2,300 -626 Descending Southern California TRACON
Sun 01:43:17 PM 33.9667 -118.3167 270° West 148 170 1,400 -810 Descending Southern California TRACON
Sun 01:44:23 PM 33.9500 -118.3667 248° West 136 157 600 -614 Descending Southern California TRACON
Sun 01:45:24 PM 33.9522 -118.4108 273° West 141 162 100 -492 Descending Los Angeles Center

Login

Don't have an account? Register now (free) for customized features, flight alerts, and more!